createdAt,value
2019-02-27T00:02:22.697Z,100493.72
2019-02-27T00:04:51.240Z,100495.06
2019-02-27T00:07:23.000Z,100498.27
2019-02-27T00:09:53.461Z,100497.48
2019-02-27T00:12:23.965Z,100497.63
2019-02-27T00:14:55.870Z,100499.69
2019-02-27T00:17:25.046Z,100504.48
2019-02-27T00:19:55.531Z,100495.18
2019-02-27T00:22:27.473Z,100498.16
2019-02-27T00:25:02.985Z,100499.05
2019-02-27T00:27:32.002Z,100492.11
2019-02-27T00:30:05.603Z,100495.88
2019-02-27T00:32:36.067Z,100492.33
2019-02-27T00:35:07.321Z,100488.28
2019-02-27T00:37:38.912Z,100487.56
2019-02-27T00:40:11.219Z,100485.20
2019-02-27T00:42:42.699Z,100478.98
2019-02-27T00:45:13.138Z,100483.14
2019-02-27T00:47:43.429Z,100485.87
2019-02-27T00:50:13.937Z,100484.66
2019-02-27T00:52:50.890Z,100484.28
2019-02-27T00:55:19.857Z,100491.05
2019-02-27T00:57:51.821Z,100479.44
2019-02-27T01:00:21.336Z,100476.03
2019-02-27T01:02:53.449Z,100479.00
2019-02-27T01:05:23.567Z,100478.38
2019-02-27T01:07:56.132Z,100473.44
2019-02-27T01:10:25.883Z,100481.93
2019-02-27T01:12:58.212Z,100476.75
2019-02-27T01:15:28.016Z,100476.31
2019-02-27T01:18:00.520Z,100469.84
2019-02-27T01:20:33.853Z,100465.91
2019-02-27T01:23:03.873Z,100465.89
2019-02-27T01:25:36.661Z,100470.98
2019-02-27T01:28:11.151Z,100470.86
2019-02-27T01:30:41.721Z,100470.02
2019-02-27T01:33:11.395Z,100465.29
2019-02-27T01:35:42.825Z,100464.73
2019-02-27T01:38:15.280Z,100466.30
2019-02-27T01:40:45.394Z,100465.92
2019-02-27T01:43:17.614Z,100453.53
2019-02-27T01:45:47.635Z,100460.55
2019-02-27T01:48:22.962Z,100454.95
2019-02-27T01:50:54.964Z,100457.12
2019-02-27T01:53:24.891Z,100452.81
2019-02-27T01:55:56.371Z,100451.11
2019-02-27T01:58:28.420Z,100449.38
2019-02-27T02:00:58.610Z,100452.46
2019-02-27T02:03:28.929Z,100448.89
2019-02-27T02:05:59.899Z,100447.41
2019-02-27T02:08:33.423Z,100439.53
2019-02-27T02:11:04.011Z,100436.78
2019-02-27T02:13:57.712Z,100430.83
2019-02-27T02:16:52.491Z,100434.38
2019-02-27T02:20:03.569Z,100427.25
2019-02-27T02:22:54.179Z,100425.47
2019-02-27T02:26:01.063Z,100419.58
2019-02-27T02:29:42.546Z,100414.44
2019-02-27T02:32:28.378Z,100411.22
2019-02-27T02:35:14.615Z,100414.06
2019-02-27T02:38:24.486Z,100410.05
2019-02-27T02:41:30.064Z,100413.28
2019-02-27T02:44:49.318Z,100406.45
2019-02-27T02:47:43.738Z,100402.48
2019-02-27T02:51:06.420Z,100403.52
2019-02-27T02:54:26.952Z,100400.91
2019-02-27T02:57:46.072Z,100402.58
2019-02-27T03:01:00.756Z,100397.25
2019-02-27T03:04:06.419Z,100394.13
2019-02-27T03:07:11.060Z,100400.48
2019-02-27T03:10:18.908Z,100395.05
2019-02-27T03:13:25.365Z,100395.57
2019-02-27T03:16:32.939Z,100389.77
2019-02-27T03:19:13.729Z,100396.16
2019-02-27T03:22:29.236Z,100392.58
2019-02-27T03:25:43.412Z,100388.50
2019-02-27T03:28:42.056Z,100387.16
2019-02-27T03:31:41.102Z,100385.67
2019-02-27T03:35:12.746Z,100386.14
2019-02-27T03:38:30.924Z,100379.33
2019-02-27T03:41:59.442Z,100380.56
2019-02-27T03:45:08.075Z,100383.42
2019-02-27T03:48:29.720Z,100382.45
2019-02-27T03:51:40.920Z,100382.59
2019-02-27T03:54:27.960Z,100372.48
2019-02-27T03:57:22.177Z,100369.92
2019-02-27T04:00:22.014Z,100360.84
2019-02-27T04:03:23.179Z,100357.62
2019-02-27T04:06:41.727Z,100354.48
2019-02-27T04:09:12.144Z,100357.27
2019-02-27T04:11:43.517Z,100353.89
2019-02-27T04:14:40.204Z,100356.92
2019-02-27T04:17:10.991Z,100360.93
2019-02-27T04:19:41.534Z,100356.67
2019-02-27T04:22:11.016Z,100356.34
2019-02-27T04:24:47.352Z,100354.17
2019-02-27T04:27:21.218Z,100354.34
2019-02-27T04:29:48.127Z,100354.25
2019-02-27T04:32:20.793Z,100345.57
2019-02-27T04:34:53.266Z,100348.16
2019-02-27T04:37:29.228Z,100343.83
2019-02-27T04:40:04.221Z,100339.42
2019-02-27T04:42:35.748Z,100339.93
2019-02-27T04:45:06.066Z,100343.00
2019-02-27T04:47:36.797Z,100346.46
2019-02-27T04:50:11.332Z,100338.33
2019-02-27T04:52:40.896Z,100349.20
2019-02-27T04:55:13.089Z,100348.83
2019-02-27T04:57:44.567Z,100346.57
2019-02-27T05:00:15.530Z,100341.68
2019-02-27T05:02:45.823Z,100341.79
2019-02-27T05:05:18.096Z,100342.09
2019-02-27T05:07:48.594Z,100348.80
2019-02-27T05:10:21.691Z,100350.05
2019-02-27T05:12:51.937Z,100352.02
2019-02-27T05:15:22.511Z,100340.29
2019-02-27T05:17:59.023Z,100338.96
2019-02-27T05:20:28.755Z,100339.80
2019-02-27T05:23:01.067Z,100338.92
2019-02-27T05:25:31.311Z,100339.94
2019-02-27T05:28:02.976Z,100342.27
2019-02-27T05:30:32.933Z,100335.84
2019-02-27T05:33:03.050Z,100331.97
2019-02-27T05:35:33.297Z,100338.98
2019-02-27T05:38:08.756Z,100337.16
2019-02-27T05:40:43.160Z,100339.84
2019-02-27T05:43:18.973Z,100337.63
2019-02-27T05:45:52.039Z,100333.66
2019-02-27T05:48:21.643Z,100334.99
2019-02-27T05:50:51.097Z,100328.81
2019-02-27T05:53:22.931Z,100331.06
2019-02-27T05:55:53.348Z,100325.80
2019-02-27T05:58:24.680Z,100326.28
2019-02-27T06:00:54.383Z,100327.03
2019-02-27T06:03:24.672Z,100323.17
2019-02-27T06:05:54.892Z,100323.98
2019-02-27T06:08:29.827Z,100321.44
2019-02-27T06:11:01.425Z,100318.47
2019-02-27T06:13:33.453Z,100322.02
2019-02-27T06:16:06.042Z,100326.73
2019-02-27T06:18:39.779Z,100321.16
2019-02-27T06:21:13.384Z,100329.52
2019-02-27T06:23:42.404Z,100330.89
2019-02-27T06:26:13.939Z,100328.79
2019-02-27T06:28:43.685Z,100327.50
2019-02-27T06:31:13.132Z,100324.02
2019-02-27T06:33:59.024Z,100324.41
2019-02-27T06:36:28.978Z,100319.98
2019-02-27T06:39:04.869Z,100313.89
2019-02-27T06:41:35.508Z,100311.65
2019-02-27T06:44:06.638Z,100307.30
2019-02-27T06:46:41.890Z,100309.44
2019-02-27T06:49:18.399Z,100312.81
2019-02-27T06:51:48.738Z,100313.17
2019-02-27T06:54:20.022Z,100311.92
2019-02-27T06:56:49.673Z,100307.53
2019-02-27T06:59:19.075Z,100308.67
2019-02-27T07:01:49.449Z,100306.78
2019-02-27T07:04:18.916Z,100304.15
2019-02-27T07:06:54.963Z,100304.49
2019-02-27T07:09:22.635Z,100304.83
2019-02-27T07:11:51.802Z,100309.53
2019-02-27T07:14:39.234Z,100300.48
2019-02-27T07:17:07.576Z,100315.28
2019-02-27T07:19:37.117Z,100312.15
2019-02-27T07:22:08.868Z,100312.08
2019-02-27T07:24:37.569Z,100307.80
2019-02-27T07:27:21.268Z,100317.28
2019-02-27T07:29:53.335Z,100316.44
2019-02-27T07:32:22.663Z,100313.75
2019-02-27T07:34:53.484Z,100311.83
2019-02-27T07:37:23.012Z,100316.06
2019-02-27T07:39:54.221Z,100309.59
2019-02-27T07:42:24.473Z,100305.07
2019-02-27T07:44:54.767Z,100300.89
2019-02-27T07:47:23.961Z,100300.45
2019-02-27T07:49:56.286Z,100300.50
2019-02-27T07:52:32.217Z,100307.34
2019-02-27T07:54:59.250Z,100310.85
2019-02-27T07:57:29.602Z,100309.89
2019-02-27T07:59:59.086Z,100312.17
2019-02-27T08:02:28.802Z,100316.95
2019-02-27T08:04:58.274Z,100309.79
2019-02-27T08:07:28.590Z,100302.66
2019-02-27T08:10:04.548Z,100302.10
2019-02-27T08:12:36.147Z,100314.82
2019-02-27T08:15:07.638Z,100311.52
2019-02-27T08:17:39.902Z,100310.84
2019-02-27T08:20:11.493Z,100308.02
2019-02-27T08:22:41.814Z,100307.95
2019-02-27T08:25:11.974Z,100311.32
2019-02-27T08:27:43.752Z,100307.82
2019-02-27T08:30:19.538Z,100296.33
2019-02-27T08:32:49.668Z,100299.25
2019-02-27T08:35:18.975Z,100301.81
2019-02-27T08:37:50.460Z,100299.84
2019-02-27T08:40:24.228Z,100291.80
2019-02-27T08:42:53.003Z,100285.78
2019-02-27T08:45:26.728Z,100279.44
2019-02-27T08:47:56.932Z,100281.86
2019-02-27T08:50:29.288Z,100273.75
2019-02-27T08:52:57.970Z,100277.97
2019-02-27T08:55:28.772Z,100278.73
2019-02-27T08:58:00.114Z,100287.28
2019-02-27T09:00:31.071Z,100282.80
2019-02-27T09:03:02.941Z,100278.98
2019-02-27T09:05:32.033Z,100274.34
2019-02-27T09:08:01.323Z,100276.17
2019-02-27T09:10:30.908Z,100280.44
2019-02-27T09:13:05.330Z,100277.72
2019-02-27T09:15:35.869Z,100271.73
2019-02-27T09:18:05.058Z,100261.91
2019-02-27T09:20:35.398Z,100251.88
2019-02-27T09:23:05.952Z,100251.23
2019-02-27T09:25:35.139Z,100246.55
2019-02-27T09:28:09.208Z,100244.52
2019-02-27T09:30:37.330Z,100237.22
2019-02-27T09:33:06.507Z,100232.23
2019-02-27T09:35:56.837Z,100232.18
2019-02-27T09:38:26.582Z,100230.18
2019-02-27T09:40:56.541Z,100222.56
2019-02-27T09:43:27.223Z,100224.92
2019-02-27T09:45:58.184Z,100224.03
2019-02-27T09:48:33.417Z,100215.39
2019-02-27T09:51:02.766Z,100213.14
2019-02-27T09:53:36.786Z,100209.47
2019-02-27T09:56:08.493Z,100203.31
2019-02-27T09:58:45.088Z,100194.72
2019-02-27T10:01:16.704Z,100195.75
2019-02-27T10:03:52.060Z,100198.56
2019-02-27T10:06:21.454Z,100198.19
2019-02-27T10:08:50.730Z,100194.38
2019-02-27T10:11:22.282Z,100193.56
2019-02-27T10:13:52.375Z,100186.91
2019-02-27T10:16:21.553Z,100186.81
2019-02-27T10:18:54.837Z,100180.80
2019-02-27T10:21:21.700Z,100176.46
2019-02-27T10:23:50.965Z,100178.75
2019-02-27T10:26:22.729Z,100170.91
2019-02-27T10:28:52.745Z,100167.22
2019-02-27T10:31:22.254Z,100164.83
2019-02-27T10:33:51.904Z,100158.91
2019-02-27T10:36:21.752Z,100160.36
2019-02-27T10:38:51.761Z,100155.98
2019-02-27T10:41:22.132Z,100152.14
2019-02-27T10:43:54.001Z,100152.48
2019-02-27T10:46:23.751Z,100147.86
2019-02-27T10:49:01.993Z,100142.18
2019-02-27T10:51:31.499Z,100142.78
2019-02-27T10:54:04.519Z,100140.10
2019-02-27T10:56:32.425Z,100135.30
2019-02-27T10:59:01.654Z,100136.95
2019-02-27T11:01:33.214Z,100134.23
2019-02-27T11:04:04.532Z,100131.92
2019-02-27T11:06:37.127Z,100131.11
2019-02-27T11:09:06.461Z,100122.36
2019-02-27T11:11:37.445Z,100118.61
2019-02-27T11:14:07.426Z,100105.70
2019-02-27T11:16:36.976Z,100095.50
2019-02-27T11:19:08.565Z,100098.54
2019-02-27T11:21:38.821Z,100096.72
2019-02-27T11:24:09.177Z,100088.97
2019-02-27T11:26:41.569Z,100084.33
2019-02-27T11:29:12.556Z,100081.67
2019-02-27T11:31:48.963Z,100082.16
2019-02-27T11:34:22.025Z,100083.91
2019-02-27T11:36:51.571Z,100072.86
2019-02-27T11:39:21.268Z,100074.25
2019-02-27T11:41:51.030Z,100077.66
2019-02-27T11:44:21.969Z,100071.44
2019-02-27T11:46:58.656Z,100067.16
2019-02-27T11:49:23.196Z,100066.75
2019-02-27T11:51:53.211Z,100063.45
2019-02-27T11:54:23.240Z,100067.13
2019-02-27T11:56:56.195Z,100060.19
2019-02-27T11:59:28.212Z,100060.84
2019-02-27T12:01:58.275Z,100052.48
2019-02-27T12:04:27.669Z,100041.55
2019-02-27T12:06:57.037Z,100033.19
2019-02-27T12:09:26.231Z,100032.16
2019-02-27T12:11:56.237Z,100025.38
2019-02-27T12:14:25.446Z,100018.93
2019-02-27T12:16:54.658Z,100014.00
2019-02-27T12:19:23.907Z,100005.09
2019-02-27T12:21:53.164Z,100007.66
2019-02-27T12:24:23.095Z,100002.82
2019-02-27T12:26:53.971Z,99991.91
2019-02-27T12:29:24.124Z,99987.86
2019-02-27T12:31:55.279Z,99982.78
2019-02-27T12:34:25.958Z,99979.09
2019-02-27T12:36:55.448Z,99976.45
2019-02-27T12:39:25.803Z,99968.80
2019-02-27T12:42:07.094Z,99954.91
2019-02-27T12:44:38.149Z,99955.21
2019-02-27T12:47:08.214Z,99943.22
2019-02-27T12:49:37.398Z,99941.28
2019-02-27T12:52:12.052Z,99940.70
2019-02-27T12:54:43.864Z,99932.73
2019-02-27T12:57:17.436Z,99930.13
2019-02-27T12:59:53.502Z,99923.12
2019-02-27T13:02:35.271Z,99919.76
2019-02-27T13:05:01.650Z,99919.17
2019-02-27T13:07:34.633Z,99918.08
2019-02-27T13:10:08.400Z,99913.84
2019-02-27T13:12:39.486Z,99910.80
2019-02-27T13:15:10.249Z,99903.19
2019-02-27T13:17:39.852Z,99903.19
2019-02-27T13:20:17.465Z,99898.47
2019-02-27T13:22:47.278Z,99894.68
2019-02-27T13:25:17.204Z,99889.45
2019-02-27T13:27:48.028Z,99886.49
2019-02-27T13:30:20.299Z,99876.70
2019-02-27T13:32:50.340Z,99875.80
2019-02-27T13:35:23.003Z,99878.85
2019-02-27T13:37:57.255Z,99874.83
2019-02-27T13:40:35.237Z,99869.20
2019-02-27T13:43:02.720Z,99865.89
2019-02-27T13:45:36.118Z,99861.50
2019-02-27T13:48:06.188Z,99873.34
2019-02-27T13:50:42.529Z,99862.37
2019-02-27T13:53:12.553Z,99856.50
2019-02-27T13:55:45.307Z,99843.82
2019-02-27T13:58:15.929Z,99851.08
2019-02-27T14:00:53.568Z,99844.09
2019-02-27T14:03:23.006Z,99839.89
2019-02-27T14:05:54.386Z,99831.84
2019-02-27T14:08:29.062Z,99819.17
2019-02-27T14:11:01.185Z,99825.53
2019-02-27T14:13:35.109Z,99819.14
2019-02-27T14:16:06.950Z,99814.35
2019-02-27T14:18:40.544Z,99809.92
2019-02-27T14:21:14.993Z,99812.33
2019-02-27T14:23:47.111Z,99807.78
2019-02-27T14:26:18.960Z,99798.45
2019-02-27T14:28:48.427Z,99798.42
2019-02-27T14:31:19.902Z,99789.82
2019-02-27T14:33:54.084Z,99791.31
2019-02-27T14:36:22.845Z,99782.73
2019-02-27T14:38:53.333Z,99784.52
2019-02-27T14:41:22.933Z,99774.17
2019-02-27T14:43:52.921Z,99769.09
2019-02-27T14:46:22.734Z,99761.72
2019-02-27T14:48:52.600Z,99760.38
2019-02-27T14:51:25.381Z,99761.23
2019-02-27T14:53:55.828Z,99762.88
2019-02-27T14:56:25.149Z,99762.20
2019-02-27T14:58:56.606Z,99741.80
2019-02-27T15:01:27.839Z,99744.76
2019-02-27T15:04:00.422Z,99733.87
2019-02-27T15:06:28.326Z,99732.80
2019-02-27T15:08:58.358Z,99731.77
2019-02-27T15:11:30.492Z,99727.89
2019-02-27T15:14:00.538Z,99724.23
2019-02-27T15:16:30.194Z,99721.61
2019-02-27T15:19:00.182Z,99715.88
2019-02-27T15:21:31.925Z,99715.22
2019-02-27T15:24:02.728Z,99715.38
2019-02-27T15:26:44.859Z,99707.98
2019-02-27T15:29:08.953Z,99698.13
2019-02-27T15:31:40.171Z,99697.47
2019-02-27T15:34:13.484Z,99690.32
2019-02-27T15:36:43.047Z,99692.14
2019-02-27T15:39:12.528Z,99694.45
2019-02-27T15:41:44.979Z,99698.07
2019-02-27T15:44:15.743Z,99689.25
2019-02-27T15:46:46.309Z,99690.02
2019-02-27T15:49:18.038Z,99685.58
2019-02-27T15:52:17.316Z,99680.56
2019-02-27T15:54:46.780Z,99680.34
2019-02-27T15:57:20.624Z,99681.98
2019-02-27T15:59:51.794Z,99668.95
2019-02-27T16:02:21.529Z,99665.66
2019-02-27T16:04:55.494Z,99667.72
2019-02-27T16:07:31.880Z,99660.42
2019-02-27T16:10:06.779Z,99659.47
2019-02-27T16:12:33.994Z,99655.20
2019-02-27T16:15:03.932Z,99659.50
2019-02-27T16:17:33.148Z,99650.09
2019-02-27T16:20:02.318Z,99639.38
2019-02-27T16:22:33.908Z,99635.28
2019-02-27T16:25:04.377Z,99637.26
2019-02-27T16:27:35.372Z,99633.91
2019-02-27T16:30:07.170Z,99628.72
2019-02-27T16:32:36.855Z,99632.63
2019-02-27T16:35:16.772Z,99631.28
2019-02-27T16:37:47.517Z,99625.27
2019-02-27T16:40:25.250Z,99627.06
2019-02-27T16:42:56.844Z,99622.89
2019-02-27T16:45:34.792Z,99623.73
2019-02-27T16:48:07.730Z,99628.67
2019-02-27T16:50:45.711Z,99629.22
2019-02-27T16:53:19.516Z,99621.98
2019-02-27T16:55:50.820Z,99614.29
2019-02-27T16:58:21.384Z,99611.10
2019-02-27T17:00:55.396Z,99605.11
2019-02-27T17:03:25.109Z,99601.42
2019-02-27T17:05:54.920Z,99607.42
2019-02-27T17:08:25.520Z,99603.00
2019-02-27T17:10:55.815Z,99604.64
2019-02-27T17:13:26.256Z,99601.77
2019-02-27T17:15:58.094Z,99602.50
2019-02-27T17:18:29.282Z,99599.09
2019-02-27T17:21:05.362Z,99603.05
2019-02-27T17:23:54.031Z,99587.20
2019-02-27T17:26:39.839Z,99593.22
2019-02-27T17:29:32.178Z,99593.89
2019-02-27T17:32:01.987Z,99592.64
2019-02-27T17:34:31.345Z,99594.05
2019-02-27T17:37:03.621Z,99592.36
2019-02-27T17:39:35.410Z,99591.52
2019-02-27T17:42:05.012Z,99597.72
2019-02-27T17:44:41.282Z,99593.25
2019-02-27T17:47:18.543Z,99587.45
2019-02-27T17:49:50.145Z,99590.75
2019-02-27T17:52:19.853Z,99594.63
2019-02-27T17:54:49.037Z,99594.01
2019-02-27T17:57:24.254Z,99593.34
2019-02-27T18:00:02.597Z,99586.27
2019-02-27T18:02:33.274Z,99595.12
2019-02-27T18:05:04.616Z,99589.84
2019-02-27T18:07:34.745Z,99589.48
2019-02-27T18:10:03.986Z,99585.96
2019-02-27T18:12:33.178Z,99585.00
2019-02-27T18:15:04.012Z,99579.06
2019-02-27T18:17:34.948Z,99580.91
2019-02-27T18:20:04.584Z,99582.53
2019-02-27T18:22:34.132Z,99574.23
2019-02-27T18:25:07.546Z,99572.75
2019-02-27T18:27:37.349Z,99568.34
2019-02-27T18:30:08.843Z,99557.67
2019-02-27T18:32:39.915Z,99560.93
2019-02-27T18:35:13.332Z,99565.97
2019-02-27T18:37:42.928Z,99561.66
2019-02-27T18:40:15.703Z,99561.69
2019-02-27T18:42:55.233Z,99551.89
2019-02-27T18:45:28.867Z,99549.35
2019-02-27T18:48:07.404Z,99539.27
2019-02-27T18:50:37.766Z,99536.95
2019-02-27T18:53:12.941Z,99538.30
2019-02-27T18:55:45.120Z,99531.95
2019-02-27T18:58:18.250Z,99527.63
2019-02-27T19:00:50.611Z,99527.05
2019-02-27T19:03:25.904Z,99521.09
2019-02-27T19:05:57.447Z,99512.92
2019-02-27T19:08:28.091Z,99505.92
2019-02-27T19:11:03.793Z,99509.88
2019-02-27T19:13:33.789Z,99500.06
2019-02-27T19:16:06.558Z,99497.05
2019-02-27T19:18:41.130Z,99495.15
2019-02-27T19:21:13.168Z,99496.22
2019-02-27T19:23:44.859Z,99490.09
2019-02-27T19:26:17.010Z,99489.13
2019-02-27T19:28:47.216Z,99484.50
2019-02-27T19:31:18.934Z,99487.83
2019-02-27T19:33:53.653Z,99484.33
2019-02-27T19:36:30.490Z,99481.40
2019-02-27T19:38:59.907Z,99484.52
2019-02-27T19:41:40.920Z,99478.45
2019-02-27T19:44:13.181Z,99484.03
2019-02-27T19:46:47.458Z,99483.55
2019-02-27T19:49:18.094Z,99475.90
2019-02-27T19:51:54.868Z,99468.06
2019-02-27T19:54:24.055Z,99468.15
2019-02-27T19:56:55.222Z,99466.77
2019-02-27T19:59:30.209Z,99463.02
2019-02-27T20:02:00.353Z,99462.84
2019-02-27T20:04:29.907Z,99457.79
2019-02-27T20:07:09.990Z,99462.59
2019-02-27T20:09:42.127Z,99456.27
2019-02-27T20:12:16.578Z,99452.13
2019-02-27T20:14:48.413Z,99453.13
2019-02-27T20:17:32.862Z,99448.30
2019-02-27T20:20:07.592Z,99453.52
2019-02-27T20:22:40.322Z,99441.56
2019-02-27T20:25:15.254Z,99442.41
2019-02-27T20:27:48.101Z,99435.52
2019-02-27T20:30:22.768Z,99435.75
2019-02-27T20:32:55.724Z,99431.59
2019-02-27T20:35:26.635Z,99426.78
2019-02-27T20:37:55.930Z,99429.14
2019-02-27T20:40:27.605Z,99434.15
2019-02-27T20:42:59.784Z,99430.88
2019-02-27T20:45:50.454Z,99429.27
2019-02-27T20:48:19.796Z,99427.58
2019-02-27T20:50:51.564Z,99425.73
2019-02-27T20:53:21.870Z,99423.05
2019-02-27T20:55:51.047Z,99423.61
2019-02-27T20:58:22.807Z,99424.53
2019-02-27T21:00:52.691Z,99416.87
2019-02-27T21:03:27.266Z,99413.73
2019-02-27T21:05:57.264Z,99416.25
2019-02-27T21:08:33.332Z,99419.67
2019-02-27T21:11:03.394Z,99410.33
2019-02-27T21:13:33.177Z,99404.58
2019-02-27T21:16:04.314Z,99403.12
2019-02-27T21:18:34.998Z,99405.30
2019-02-27T21:21:05.986Z,99402.23
2019-02-27T21:23:35.514Z,99400.92
2019-02-27T21:26:05.022Z,99410.66
2019-02-27T21:28:34.190Z,99402.55
2019-02-27T21:31:04.717Z,99394.75
2019-02-27T21:33:35.102Z,99387.94
2019-02-27T21:36:05.084Z,99389.23
2019-02-27T21:38:37.672Z,99377.02
2019-02-27T21:41:11.463Z,99381.31
2019-02-27T21:43:40.035Z,99373.20
2019-02-27T21:46:11.582Z,99374.79
2019-02-27T21:48:41.256Z,99373.84
2019-02-27T21:51:11.027Z,99377.99
2019-02-27T21:53:41.922Z,99379.02
2019-02-27T21:56:15.188Z,99382.13
2019-02-27T21:58:43.350Z,99376.97
2019-02-27T22:01:13.094Z,99380.33
2019-02-27T22:03:43.223Z,99380.65
2019-02-27T22:06:12.731Z,99381.13
2019-02-27T22:08:42.236Z,99375.37
2019-02-27T22:11:13.340Z,99368.23
2019-02-27T22:13:45.369Z,99365.38
2019-02-27T22:16:13.669Z,99368.30
2019-02-27T22:18:47.142Z,99356.06
2019-02-27T22:21:15.837Z,99362.02
2019-02-27T22:23:46.021Z,99357.91
2019-02-27T22:26:15.342Z,99354.55
2019-02-27T22:28:46.738Z,99356.58
2019-02-27T22:31:15.947Z,99352.29
2019-02-27T22:33:46.334Z,99352.94
2019-02-27T22:36:15.972Z,99343.70
2019-02-27T22:38:46.018Z,99339.07
2019-02-27T22:41:15.304Z,99331.48
2019-02-27T22:43:47.456Z,99332.80
2019-02-27T22:46:19.911Z,99331.55
2019-02-27T22:48:49.513Z,99328.37
2019-02-27T22:51:18.743Z,99321.59
2019-02-27T22:53:47.889Z,99319.22
2019-02-27T22:56:17.211Z,99316.57
2019-02-27T22:58:49.394Z,99313.14
2019-02-27T23:01:25.343Z,99305.33
2019-02-27T23:04:07.235Z,99306.69
2019-02-27T23:06:43.730Z,99304.60
2019-02-27T23:09:14.015Z,99303.91
2019-02-27T23:11:46.425Z,99303.99
2019-02-27T23:14:18.947Z,99300.81
2019-02-27T23:16:47.099Z,99295.08
2019-02-27T23:19:17.062Z,99293.61
2019-02-27T23:21:47.408Z,99294.84
2019-02-27T23:24:17.131Z,99289.57
2019-02-27T23:26:54.138Z,99293.64
2019-02-27T23:29:24.222Z,99291.92
2019-02-27T23:31:55.810Z,99290.94
2019-02-27T23:34:26.614Z,99291.80
2019-02-27T23:36:56.543Z,99287.59
2019-02-27T23:39:26.698Z,99282.12
2019-02-27T23:41:57.157Z,99280.16
2019-02-27T23:44:26.769Z,99275.02
2019-02-27T23:46:58.272Z,99274.52
2019-02-27T23:49:27.449Z,99273.54
2019-02-27T23:51:56.901Z,99265.34
2019-02-27T23:54:26.662Z,99266.11
2019-02-27T23:56:56.194Z,99265.19
2019-02-27T23:59:27.255Z,99270.75
